createdAt,value
2018-05-29T00:01:33.940Z,15.23
2018-05-29T00:03:37.600Z,14.77
2018-05-29T00:05:41.152Z,16.77
2018-05-29T00:07:45.063Z,14.67
2018-05-29T00:09:48.803Z,16.73
2018-05-29T00:11:52.666Z,16.90
2018-05-29T00:13:56.432Z,17.97
2018-05-29T00:16:00.059Z,17.27
2018-05-29T00:18:03.632Z,17.93
2018-05-29T00:20:07.318Z,18.63
2018-05-29T00:22:11.172Z,19.33
2018-05-29T00:24:14.864Z,17.10
2018-05-29T00:26:18.640Z,16.50
2018-05-29T00:28:22.323Z,15.33
2018-05-29T00:30:26.019Z,15.87
2018-05-29T00:32:29.821Z,16.50
2018-05-29T00:34:33.364Z,17.70
2018-05-29T00:36:37.014Z,16.67
2018-05-29T00:38:40.736Z,16.47
2018-05-29T00:40:44.448Z,17.47
2018-05-29T00:42:48.140Z,16.17
2018-05-29T00:44:51.940Z,15.93
2018-05-29T00:46:55.480Z,16.80
2018-05-29T00:48:59.048Z,16.07
2018-05-29T00:51:02.676Z,15.53
2018-05-29T00:53:06.312Z,16.57
2018-05-29T00:55:21.030Z,16.20
2018-05-29T00:57:24.651Z,17.90
2018-05-29T00:59:28.281Z,20.87
2018-05-29T01:01:31.985Z,20.27
2018-05-29T01:03:35.541Z,16.27
2018-05-29T01:05:39.121Z,15.63
2018-05-29T01:07:42.746Z,16.90
2018-05-29T01:09:46.271Z,17.30
2018-05-29T01:11:49.925Z,18.97
2018-05-29T01:13:53.514Z,17.70
2018-05-29T01:15:57.205Z,17.43
2018-05-29T01:18:00.752Z,16.57
2018-05-29T01:20:03.773Z,18.50
2018-05-29T01:22:07.496Z,16.93
2018-05-29T01:24:11.166Z,17.20
2018-05-29T01:26:14.749Z,18.47
2018-05-29T01:28:18.476Z,17.63
2018-05-29T01:30:22.253Z,17.13
2018-05-29T01:32:25.565Z,17.40
2018-05-29T01:34:29.191Z,17.47
2018-05-29T01:36:32.782Z,17.10
2018-05-29T01:38:36.569Z,17.53
2018-05-29T01:40:40.288Z,18.57
2018-05-29T01:42:43.961Z,18.47
2018-05-29T01:44:47.556Z,18.50
2018-05-29T01:46:51.470Z,19.60
2018-05-29T01:48:55.209Z,18.17
2018-05-29T01:50:58.941Z,17.67
2018-05-29T01:53:02.561Z,17.13
2018-05-29T01:55:06.239Z,20.77
2018-05-29T01:57:09.936Z,19.80
2018-05-29T01:59:13.545Z,18.43
2018-05-29T02:01:17.139Z,18.57
2018-05-29T02:03:20.737Z,19.70
2018-05-29T02:05:24.500Z,19.20
2018-05-29T02:07:28.103Z,19.20
2018-05-29T02:09:31.958Z,19.00
2018-05-29T02:11:35.545Z,19.83
2018-05-29T02:13:39.159Z,18.30
2018-05-29T02:15:42.753Z,18.93
2018-05-29T02:17:46.441Z,18.77
2018-05-29T02:19:50.006Z,16.80
2018-05-29T02:21:53.607Z,16.83
2018-05-29T02:23:57.254Z,17.87
2018-05-29T02:26:00.952Z,17.37
2018-05-29T02:28:04.544Z,18.30
2018-05-29T02:30:08.113Z,18.70
2018-05-29T02:32:11.724Z,17.13
2018-05-29T02:34:15.314Z,19.47
2018-05-29T02:36:19.021Z,19.90
2018-05-29T02:38:22.656Z,18.00
2018-05-29T02:40:26.178Z,17.27
2018-05-29T02:42:29.730Z,19.03
2018-05-29T02:44:33.304Z,17.73
2018-05-29T02:46:37.023Z,18.77
2018-05-29T02:48:40.675Z,20.17
2018-05-29T02:50:44.314Z,18.07
2018-05-29T02:52:47.900Z,17.43
2018-05-29T02:54:51.499Z,19.77
2018-05-29T02:56:55.115Z,15.80
2018-05-29T02:58:58.691Z,20.97
2018-05-29T03:01:02.274Z,18.40
2018-05-29T03:03:05.901Z,18.83
2018-05-29T03:05:09.729Z,18.17
2018-05-29T03:07:13.356Z,17.20
2018-05-29T03:09:16.988Z,19.10
2018-05-29T03:11:20.604Z,17.90
2018-05-29T03:13:24.145Z,20.57
2018-05-29T03:15:27.681Z,17.87
2018-05-29T03:17:31.240Z,19.70
2018-05-29T03:19:34.850Z,19.83
2018-05-29T03:21:38.498Z,19.13
2018-05-29T03:23:42.243Z,38.10
2018-05-29T03:25:45.959Z,18.27
2018-05-29T03:27:49.542Z,18.83
2018-05-29T03:29:53.137Z,18.17
2018-05-29T03:31:56.677Z,19.27
2018-05-29T03:34:00.561Z,18.43
2018-05-29T03:36:04.199Z,17.30
2018-05-29T03:38:07.950Z,17.73
2018-05-29T03:40:11.570Z,19.83
2018-05-29T03:42:15.205Z,21.13
2018-05-29T03:44:18.745Z,18.33
2018-05-29T03:46:22.255Z,18.83
2018-05-29T03:48:25.842Z,21.23
2018-05-29T03:50:29.112Z,22.23
2018-05-29T03:52:32.728Z,20.53
2018-05-29T03:54:38.872Z,22.97
2018-05-29T03:56:42.650Z,23.33
2018-05-29T03:58:46.305Z,25.00
2018-05-29T04:00:49.949Z,22.17
2018-05-29T04:02:53.569Z,20.37
2018-05-29T04:04:57.174Z,23.23
2018-05-29T04:07:00.796Z,24.97
2018-05-29T04:09:03.544Z,20.70
2018-05-29T04:11:07.172Z,20.33
2018-05-29T04:13:10.820Z,23.03
2018-05-29T04:15:14.381Z,19.57
2018-05-29T04:17:17.973Z,20.30
2018-05-29T04:19:21.620Z,17.90
2018-05-29T04:21:25.176Z,19.53
2018-05-29T04:23:28.707Z,21.03
2018-05-29T04:25:32.515Z,21.30
2018-05-29T04:27:36.165Z,18.60
2018-05-29T04:29:39.723Z,19.57
2018-05-29T04:31:43.299Z,19.63
2018-05-29T04:33:46.864Z,21.57
2018-05-29T04:35:50.438Z,20.60
2018-05-29T04:37:54.028Z,19.50
2018-05-29T04:39:57.604Z,20.33
2018-05-29T04:42:01.327Z,18.33
2018-05-29T04:44:04.925Z,16.03
2018-05-29T04:46:08.494Z,16.40
2018-05-29T04:48:12.091Z,15.33
2018-05-29T04:52:15.315Z,15.30
2018-05-29T04:54:19.022Z,16.40
2018-05-29T04:56:22.769Z,15.87
2018-05-29T04:58:26.338Z,14.83
2018-05-29T05:00:29.857Z,15.03
2018-05-29T05:02:33.356Z,18.23
2018-05-29T05:04:37.136Z,13.57
2018-05-29T05:06:40.652Z,14.63
2018-05-29T05:08:43.884Z,16.93
2018-05-29T05:10:47.405Z,15.23
2018-05-29T05:12:51.371Z,15.40
2018-05-29T05:14:55.135Z,14.63
2018-05-29T05:16:58.884Z,15.47
2018-05-29T05:19:02.580Z,17.83
2018-05-29T05:21:06.247Z,17.60
2018-05-29T05:23:10.072Z,15.60
2018-05-29T05:25:13.785Z,15.40
2018-05-29T05:27:17.375Z,17.10
2018-05-29T05:29:21.113Z,15.90
2018-05-29T05:31:24.518Z,19.33
2018-05-29T05:33:28.168Z,17.27
2018-05-29T05:35:31.742Z,17.37
2018-05-29T05:37:35.329Z,17.47
2018-05-29T05:39:39.236Z,16.50
2018-05-29T05:41:42.975Z,16.63
2018-05-29T05:43:46.719Z,18.87
2018-05-29T05:45:50.272Z,17.37
2018-05-29T05:47:53.853Z,19.77
2018-05-29T05:49:57.571Z,20.90
2018-05-29T05:52:01.158Z,22.03
2018-05-29T05:54:04.710Z,17.23
2018-05-29T05:56:08.238Z,18.17
2018-05-29T05:58:11.892Z,16.60
2018-05-29T06:00:16.139Z,21.60
2018-05-29T06:02:20.637Z,21.37
2018-05-29T06:04:26.040Z,19.60
2018-05-29T06:06:30.965Z,22.90
2018-05-29T06:08:35.688Z,20.83
2018-05-29T06:10:39.997Z,19.37
2018-05-29T06:12:44.597Z,19.57
2018-05-29T06:14:49.969Z,19.90
2018-05-29T06:16:55.199Z,21.40
2018-05-29T06:19:06.279Z,17.50
2018-05-29T06:21:10.849Z,15.47
2018-05-29T06:23:15.835Z,15.80
2018-05-29T06:25:19.898Z,18.57
2018-05-29T06:27:23.783Z,15.07
2018-05-29T06:29:27.511Z,15.73
2018-05-29T06:31:31.644Z,15.07
2018-05-29T06:33:35.514Z,23.73
2018-05-29T06:35:39.230Z,16.63
2018-05-29T06:37:42.890Z,15.27
2018-05-29T06:39:46.592Z,15.13
2018-05-29T06:41:50.371Z,17.10
2018-05-29T06:43:54.037Z,16.97
2018-05-29T06:45:57.647Z,15.23
2018-05-29T06:48:01.360Z,15.50
2018-05-29T06:50:04.748Z,16.97
2018-05-29T06:52:08.957Z,16.33
2018-05-29T06:54:12.709Z,13.80
2018-05-29T06:56:16.263Z,14.53
2018-05-29T06:58:21.098Z,14.00
2018-05-29T07:00:25.082Z,14.50
2018-05-29T07:02:29.003Z,17.67
2018-05-29T07:04:32.804Z,11.37
2018-05-29T07:06:36.819Z,12.90
2018-05-29T07:08:40.928Z,10.47
2018-05-29T07:10:45.179Z,11.33
2018-05-29T07:12:49.247Z,11.50
2018-05-29T07:14:53.917Z,10.37
2018-05-29T07:16:59.769Z,10.53
2018-05-29T07:19:04.843Z,9.20
2018-05-29T07:21:08.716Z,9.57
2018-05-29T07:23:12.709Z,16.67
2018-05-29T07:25:17.075Z,14.07
2018-05-29T07:27:21.101Z,10.13
2018-05-29T07:29:25.089Z,9.80
2018-05-29T07:31:28.713Z,10.37
2018-05-29T07:33:32.543Z,10.43
2018-05-29T07:35:36.716Z,11.37
2018-05-29T07:37:40.777Z,12.60
2018-05-29T07:39:44.804Z,11.60
2018-05-29T07:41:48.682Z,11.43
2018-05-29T07:43:52.416Z,11.27
2018-05-29T07:45:56.653Z,9.50
2018-05-29T07:48:00.415Z,10.83
2018-05-29T07:50:03.748Z,10.47
2018-05-29T07:52:07.335Z,12.33
2018-05-29T07:54:10.907Z,10.37
2018-05-29T07:56:16.489Z,11.40
2018-05-29T07:58:20.564Z,10.90
2018-05-29T08:00:24.686Z,9.33
2018-05-29T08:02:28.784Z,13.50
2018-05-29T08:04:32.851Z,11.37
2018-05-29T08:06:36.552Z,10.47
2018-05-29T08:08:40.519Z,15.00
2018-05-29T08:10:44.522Z,13.27
2018-05-29T08:12:48.375Z,12.97
2018-05-29T08:14:52.146Z,11.57
2018-05-29T08:16:56.037Z,12.47
2018-05-29T08:18:59.983Z,12.20
2018-05-29T08:21:03.437Z,9.80
2018-05-29T08:23:07.091Z,9.47
2018-05-29T08:25:11.327Z,10.20
2018-05-29T08:27:15.187Z,10.57
2018-05-29T08:29:19.312Z,12.93
2018-05-29T08:31:24.320Z,11.03
2018-05-29T08:33:28.603Z,10.27
2018-05-29T08:35:32.791Z,9.43
2018-05-29T08:37:36.702Z,10.63
2018-05-29T08:39:40.703Z,9.87
2018-05-29T08:41:45.653Z,13.00
2018-05-29T08:43:49.633Z,10.53
2018-05-29T08:45:54.795Z,13.90
2018-05-29T08:47:58.984Z,11.17
2018-05-29T08:50:03.227Z,12.47
2018-05-29T08:52:06.918Z,10.83
2018-05-29T08:54:10.926Z,9.77
2018-05-29T08:56:14.917Z,13.97
2018-05-29T08:58:19.068Z,11.43
2018-05-29T09:00:23.649Z,12.00
2018-05-29T09:02:27.648Z,11.33
2018-05-29T09:04:31.466Z,10.57
2018-05-29T09:06:35.163Z,13.30
2018-05-29T09:08:39.179Z,12.13
2018-05-29T09:10:43.435Z,11.67
2018-05-29T09:12:47.428Z,11.20
2018-05-29T09:14:51.262Z,12.03
2018-05-29T09:16:55.095Z,15.00
2018-05-29T09:18:58.886Z,14.37
2018-05-29T09:21:02.815Z,13.43
2018-05-29T09:23:06.580Z,12.00
2018-05-29T09:25:10.593Z,13.73
2018-05-29T09:27:14.281Z,14.40
2018-05-29T09:29:18.456Z,14.17
2018-05-29T09:31:22.229Z,10.07
2018-05-29T09:33:26.230Z,11.07
2018-05-29T09:35:29.852Z,14.87
2018-05-29T09:37:33.652Z,13.63
2018-05-29T09:39:37.326Z,13.70
2018-05-29T09:41:41.247Z,14.17
2018-05-29T09:43:44.789Z,14.87
2018-05-29T09:45:48.350Z,13.67
2018-05-29T09:47:52.059Z,14.53
2018-05-29T09:49:55.657Z,17.60
2018-05-29T09:51:59.228Z,10.73
2018-05-29T09:54:05.650Z,12.20
2018-05-29T09:56:09.200Z,11.77
2018-05-29T09:58:12.887Z,11.60
2018-05-29T10:00:22.041Z,8.50
2018-05-29T10:02:26.522Z,13.70
2018-05-29T10:04:30.598Z,12.17
2018-05-29T10:06:34.225Z,10.57
2018-05-29T10:08:37.745Z,10.83
2018-05-29T10:10:41.333Z,10.27
2018-05-29T10:12:44.907Z,9.03
2018-05-29T10:14:48.532Z,9.90
2018-05-29T10:16:52.089Z,10.90
2018-05-29T10:18:55.692Z,11.20
2018-05-29T10:20:59.234Z,17.10
2018-05-29T10:23:02.804Z,8.73
2018-05-29T10:25:06.441Z,9.57
2018-05-29T10:27:10.063Z,8.40
2018-05-29T10:29:13.689Z,12.07
2018-05-29T10:31:17.282Z,13.03
2018-05-29T10:33:20.832Z,8.60
2018-05-29T10:35:24.385Z,6.60
2018-05-29T10:37:27.959Z,12.10
2018-05-29T10:39:31.467Z,7.97
2018-05-29T10:41:35.036Z,8.60
2018-05-29T10:43:38.558Z,10.23
2018-05-29T10:45:42.102Z,9.20
2018-05-29T10:47:45.790Z,6.80
2018-05-29T10:49:49.529Z,7.93
2018-05-29T10:51:53.528Z,7.20
2018-05-29T10:53:57.322Z,9.87
2018-05-29T10:56:00.975Z,7.90
2018-05-29T10:58:04.981Z,7.53
2018-05-29T11:00:08.638Z,10.53
2018-05-29T11:02:12.312Z,9.73
2018-05-29T11:04:15.946Z,7.23
2018-05-29T11:06:19.506Z,10.13
2018-05-29T11:08:23.212Z,10.50
2018-05-29T11:10:26.742Z,6.87
2018-05-29T11:12:30.326Z,8.17
2018-05-29T11:14:33.894Z,6.80
2018-05-29T11:16:37.490Z,10.50
2018-05-29T11:18:41.143Z,8.40
2018-05-29T11:20:44.844Z,6.23
2018-05-29T11:22:48.507Z,6.83
2018-05-29T11:24:52.117Z,9.13
2018-05-29T11:26:55.718Z,7.77
2018-05-29T11:28:59.696Z,8.37
2018-05-29T11:31:03.322Z,6.67
2018-05-29T11:33:06.864Z,7.73
2018-05-29T11:35:10.372Z,6.97
2018-05-29T11:37:14.025Z,9.07
2018-05-29T11:39:17.631Z,8.90
2018-05-29T11:41:21.270Z,6.43
2018-05-29T11:43:24.921Z,8.33
2018-05-29T11:45:28.605Z,9.23
2018-05-29T11:47:32.192Z,5.90
2018-05-29T11:49:35.752Z,6.20
2018-05-29T11:51:38.951Z,8.33
2018-05-29T11:53:42.873Z,6.07
2018-05-29T11:55:46.613Z,9.43
2018-05-29T11:57:50.407Z,8.03
2018-05-29T11:59:54.254Z,6.57
2018-05-29T12:01:57.828Z,9.77
2018-05-29T12:04:01.426Z,6.60
2018-05-29T12:06:04.705Z,8.43
2018-05-29T12:08:08.304Z,7.43
2018-05-29T12:10:11.854Z,5.90
2018-05-29T12:12:26.334Z,5.67
2018-05-29T12:14:29.956Z,9.50
2018-05-29T12:16:33.794Z,7.67
2018-05-29T12:18:37.405Z,6.87
2018-05-29T12:20:41.063Z,9.20
2018-05-29T12:22:44.611Z,8.07
2018-05-29T12:24:48.331Z,10.03
2018-05-29T12:26:52.060Z,9.23
2018-05-29T12:28:55.722Z,13.93
2018-05-29T12:30:59.341Z,6.47
2018-05-29T12:33:02.918Z,6.93
2018-05-29T12:35:06.484Z,9.80
2018-05-29T12:37:10.100Z,7.37
2018-05-29T12:39:13.684Z,7.80
2018-05-29T12:41:17.367Z,6.80
2018-05-29T12:43:20.946Z,9.53
2018-05-29T12:45:24.473Z,9.13
2018-05-29T12:47:28.056Z,7.50
2018-05-29T12:49:31.637Z,9.07
2018-05-29T12:51:35.148Z,7.03
2018-05-29T12:53:38.800Z,8.20
2018-05-29T12:55:42.357Z,8.63
2018-05-29T12:57:45.884Z,11.80
2018-05-29T12:59:49.479Z,6.77
2018-05-29T13:01:53.088Z,7.20
2018-05-29T13:03:56.729Z,5.33
2018-05-29T13:06:00.749Z,9.30
2018-05-29T13:08:04.762Z,5.93
2018-05-29T13:10:08.481Z,8.93
2018-05-29T13:12:12.680Z,8.43
2018-05-29T13:14:16.366Z,16.10
2018-05-29T13:16:20.043Z,6.37
2018-05-29T13:18:23.939Z,9.07
2018-05-29T13:20:28.196Z,7.00
2018-05-29T13:22:31.945Z,9.57
2018-05-29T13:24:35.731Z,7.53
2018-05-29T13:26:39.538Z,7.37
2018-05-29T13:28:43.180Z,8.60
2018-05-29T13:30:46.831Z,8.87
2018-05-29T13:32:50.566Z,9.17
2018-05-29T13:34:55.022Z,7.70
2018-05-29T13:36:58.546Z,7.80
2018-05-29T13:39:02.060Z,10.53
2018-05-29T13:41:05.613Z,8.83
2018-05-29T13:43:09.237Z,8.70
2018-05-29T13:45:13.240Z,10.10
2018-05-29T13:47:16.760Z,9.23
2018-05-29T13:49:20.328Z,7.77
2018-05-29T13:51:24.547Z,11.17
2018-05-29T13:53:28.894Z,6.67
2018-05-29T13:55:32.599Z,7.77
2018-05-29T13:57:36.236Z,7.47
2018-05-29T13:59:39.894Z,8.33
2018-05-29T14:01:43.685Z,10.03
2018-05-29T14:03:47.749Z,6.73
2018-05-29T14:05:51.466Z,6.47
2018-05-29T14:07:55.951Z,6.93
2018-05-29T14:09:59.689Z,8.63
2018-05-29T14:12:05.115Z,8.33
2018-05-29T14:14:08.811Z,8.07
2018-05-29T14:16:13.100Z,8.07
2018-05-29T14:18:17.199Z,7.73
2018-05-29T14:20:21.551Z,6.23
2018-05-29T14:22:25.819Z,7.30
2018-05-29T14:24:30.088Z,7.47
2018-05-29T14:26:34.265Z,9.43
2018-05-29T14:28:38.770Z,8.87
2018-05-29T14:30:42.698Z,6.47
2018-05-29T14:32:46.463Z,7.83
2018-05-29T14:34:49.985Z,9.13
2018-05-29T14:36:54.136Z,7.80
2018-05-29T14:38:58.337Z,6.70
2018-05-29T14:41:03.784Z,7.33
2018-05-29T14:43:08.131Z,7.33
2018-05-29T14:45:13.106Z,9.67
2018-05-29T14:47:18.398Z,8.70
2018-05-29T14:49:26.303Z,8.40
2018-05-29T14:51:31.768Z,10.03
2018-05-29T14:53:36.178Z,8.00
2018-05-29T14:55:40.112Z,9.53
2018-05-29T14:57:43.833Z,7.43
2018-05-29T14:59:47.788Z,8.57
2018-05-29T15:01:51.748Z,9.10
2018-05-29T15:03:56.046Z,8.37
2018-05-29T15:06:00.155Z,9.47
2018-05-29T15:08:05.255Z,9.73
2018-05-29T15:10:09.619Z,9.83
2018-05-29T15:12:13.831Z,7.17
2018-05-29T15:14:17.840Z,7.77
2018-05-29T15:16:22.569Z,7.23
2018-05-29T15:18:27.070Z,9.90
2018-05-29T15:20:31.194Z,8.07
2018-05-29T15:22:36.120Z,8.93
2018-05-29T15:24:40.747Z,8.97
2018-05-29T15:26:45.778Z,11.37
2018-05-29T15:28:50.493Z,9.70
2018-05-29T15:30:54.342Z,9.73
2018-05-29T15:32:58.107Z,8.03
2018-05-29T15:35:01.713Z,9.83
2018-05-29T15:37:05.732Z,8.57
2018-05-29T15:39:09.695Z,10.93
2018-05-29T15:41:13.209Z,8.63
2018-05-29T15:43:16.759Z,8.17
2018-05-29T15:45:20.285Z,9.93
2018-05-29T15:47:23.841Z,12.77
2018-05-29T15:49:27.359Z,9.03
2018-05-29T15:51:30.898Z,10.80
2018-05-29T15:53:34.389Z,10.73
2018-05-29T15:55:37.919Z,11.13
2018-05-29T15:57:41.464Z,10.30
2018-05-29T15:59:44.980Z,8.67
2018-05-29T16:01:48.468Z,9.63
2018-05-29T16:03:52.035Z,6.57
2018-05-29T16:05:55.575Z,7.30
2018-05-29T16:07:59.108Z,8.30
2018-05-29T16:10:02.604Z,11.33
2018-05-29T16:12:05.720Z,9.43
2018-05-29T16:14:09.331Z,8.10
2018-05-29T16:16:13.002Z,10.27
2018-05-29T16:18:16.510Z,8.00
2018-05-29T16:20:20.026Z,9.43
2018-05-29T16:22:23.571Z,8.07
2018-05-29T16:24:27.082Z,9.60
2018-05-29T16:26:30.631Z,9.47
2018-05-29T16:28:34.373Z,8.10
2018-05-29T16:30:37.890Z,9.23
2018-05-29T16:32:41.391Z,8.13
2018-05-29T16:34:45.008Z,6.87
2018-05-29T16:36:48.454Z,8.10
2018-05-29T16:38:51.972Z,7.70
2018-05-29T16:40:55.498Z,9.83
2018-05-29T16:42:58.992Z,9.17
2018-05-29T16:45:02.548Z,9.50
2018-05-29T16:47:06.063Z,8.47
2018-05-29T16:49:09.623Z,9.67
2018-05-29T16:51:13.157Z,9.70
2018-05-29T16:53:16.656Z,6.03
2018-05-29T16:55:20.205Z,8.33
2018-05-29T16:57:23.745Z,8.40
2018-05-29T16:59:27.237Z,8.63
2018-05-29T17:01:30.781Z,7.27
2018-05-29T17:03:34.335Z,7.50
2018-05-29T17:05:37.888Z,11.40
2018-05-29T17:07:41.409Z,10.07
2018-05-29T17:09:44.620Z,10.57
2018-05-29T17:11:48.150Z,7.23
2018-05-29T17:13:51.681Z,11.87
2018-05-29T17:15:55.240Z,8.83
2018-05-29T17:17:58.731Z,11.63
2018-05-29T17:20:02.333Z,8.60
2018-05-29T17:22:05.814Z,8.70
2018-05-29T17:24:09.356Z,7.33
2018-05-29T17:26:12.882Z,9.33
2018-05-29T17:28:16.388Z,10.20
2018-05-29T17:30:19.916Z,7.37
2018-05-29T17:32:23.420Z,6.90
2018-05-29T17:34:26.952Z,6.63
2018-05-29T17:36:30.496Z,7.77
2018-05-29T17:38:34.025Z,9.63
2018-05-29T17:40:37.556Z,5.43
2018-05-29T17:42:41.081Z,7.13
2018-05-29T17:44:44.589Z,18.57
2018-05-29T17:46:48.125Z,11.13
2018-05-29T17:48:51.638Z,7.00
2018-05-29T17:50:55.181Z,7.67
2018-05-29T17:52:58.665Z,7.87
2018-05-29T17:55:02.216Z,6.33
2018-05-29T17:57:05.518Z,10.23
2018-05-29T17:59:09.212Z,9.10
2018-05-29T18:01:12.743Z,9.10
2018-05-29T18:03:16.235Z,8.50
2018-05-29T18:05:19.742Z,9.83
2018-05-29T18:07:23.302Z,9.50
2018-05-29T18:09:26.842Z,8.13
2018-05-29T18:11:30.349Z,7.57
2018-05-29T18:13:33.854Z,10.27
2018-05-29T18:15:37.351Z,7.70
2018-05-29T18:17:40.871Z,8.90
2018-05-29T18:19:44.372Z,10.70
2018-05-29T18:21:47.904Z,7.37
2018-05-29T18:23:50.757Z,9.80
2018-05-29T18:25:54.289Z,9.37
2018-05-29T18:27:57.833Z,7.20
2018-05-29T18:30:01.305Z,10.00
2018-05-29T18:32:04.505Z,9.30
2018-05-29T18:34:08.016Z,10.00
2018-05-29T18:36:11.529Z,7.90
2018-05-29T18:38:15.102Z,9.97
2018-05-29T18:40:18.617Z,9.67
2018-05-29T18:42:22.136Z,11.40
2018-05-29T18:44:25.654Z,12.50
2018-05-29T18:46:29.207Z,11.00
2018-05-29T18:48:32.692Z,7.13
2018-05-29T18:50:36.221Z,9.40
2018-05-29T18:52:39.768Z,8.00
2018-05-29T18:54:43.280Z,7.23
2018-05-29T18:56:46.828Z,9.70
2018-05-29T18:58:50.359Z,13.00
2018-05-29T19:00:53.891Z,9.13
2018-05-29T19:02:57.441Z,7.57
2018-05-29T19:05:00.952Z,9.37
2018-05-29T19:07:04.452Z,9.90
2018-05-29T19:09:07.985Z,8.03
2018-05-29T19:11:11.508Z,11.37
2018-05-29T19:13:15.034Z,9.97
2018-05-29T19:15:18.220Z,9.60
2018-05-29T19:17:21.728Z,13.37
2018-05-29T19:19:25.274Z,10.90
2018-05-29T19:21:28.956Z,7.40
2018-05-29T19:23:32.512Z,8.97
2018-05-29T19:25:36.017Z,9.53
2018-05-29T19:27:39.569Z,7.57
2018-05-29T19:29:43.069Z,9.17
2018-05-29T19:31:46.584Z,12.40
2018-05-29T19:33:50.105Z,11.50
2018-05-29T19:35:53.604Z,10.17
2018-05-29T19:37:57.122Z,11.10
2018-05-29T19:40:00.635Z,10.57
2018-05-29T19:42:03.821Z,13.27
2018-05-29T19:44:07.365Z,6.97
2018-05-29T19:46:10.932Z,7.37
2018-05-29T19:48:14.492Z,9.53
2018-05-29T19:50:17.999Z,9.57
2018-05-29T19:52:21.498Z,9.00
2018-05-29T19:54:25.054Z,12.33
2018-05-29T19:56:28.558Z,11.60
2018-05-29T19:58:32.075Z,10.13
2018-05-29T20:00:35.634Z,10.40
2018-05-29T20:02:39.182Z,8.53
2018-05-29T20:04:42.659Z,10.23
2018-05-29T20:06:46.198Z,10.57
2018-05-29T20:08:49.731Z,11.00
2018-05-29T20:10:52.924Z,9.70
2018-05-29T20:12:56.421Z,12.97
2018-05-29T20:14:59.969Z,11.13
2018-05-29T20:17:06.499Z,11.50
2018-05-29T20:19:10.029Z,14.30
2018-05-29T20:21:13.316Z,8.53
2018-05-29T20:23:16.838Z,13.37
2018-05-29T20:25:20.325Z,12.03
2018-05-29T20:27:23.954Z,7.83
2018-05-29T20:29:26.831Z,11.73
2018-05-29T20:31:30.331Z,11.33
2018-05-29T20:33:34.062Z,10.47
2018-05-29T20:35:37.625Z,10.53
2018-05-29T20:37:41.106Z,10.57
2018-05-29T20:39:44.668Z,11.13
2018-05-29T20:41:48.154Z,16.97
2018-05-29T20:43:51.710Z,12.37
2018-05-29T20:45:55.403Z,15.87
2018-05-29T20:47:58.924Z,12.37
2018-05-29T20:50:02.484Z,10.67
2018-05-29T20:52:06.121Z,11.07
2018-05-29T20:54:09.640Z,14.67
2018-05-29T20:56:13.383Z,9.20
2018-05-29T20:58:16.914Z,10.60
2018-05-29T21:00:20.445Z,11.67
2018-05-29T21:02:23.921Z,11.73
2018-05-29T21:04:27.485Z,10.27
2018-05-29T21:06:30.672Z,12.53
2018-05-29T21:08:34.219Z,11.43
2018-05-29T21:10:37.751Z,8.53
2018-05-29T21:12:41.263Z,13.13
2018-05-29T21:14:44.767Z,9.07
2018-05-29T21:16:48.264Z,10.17
2018-05-29T21:18:51.815Z,10.20
2018-05-29T21:20:55.313Z,11.00
2018-05-29T21:22:58.845Z,9.70
2018-05-29T21:25:02.347Z,9.23
2018-05-29T21:27:05.881Z,10.40
2018-05-29T21:29:09.415Z,10.33
2018-05-29T21:31:12.887Z,11.43
2018-05-29T21:33:16.407Z,8.77
2018-05-29T21:35:19.902Z,10.30
2018-05-29T21:37:23.436Z,10.33
2018-05-29T21:39:26.922Z,8.23
2018-05-29T21:41:30.440Z,12.37
2018-05-29T21:43:34.003Z,10.03
2018-05-29T21:45:37.516Z,8.53
2018-05-29T21:47:41.017Z,11.03
2018-05-29T21:49:44.531Z,9.77
2018-05-29T21:51:48.021Z,9.77
2018-05-29T21:53:51.543Z,9.90
2018-05-29T21:55:55.039Z,9.87
2018-05-29T21:57:58.572Z,12.53
2018-05-29T22:00:02.159Z,10.93
2018-05-29T22:02:05.778Z,10.33
2018-05-29T22:04:09.276Z,10.07
2018-05-29T22:06:12.772Z,12.10
2018-05-29T22:08:16.310Z,10.97
2018-05-29T22:10:19.820Z,14.07
2018-05-29T22:12:23.332Z,13.47
2018-05-29T22:14:26.858Z,15.37
2018-05-29T22:16:30.389Z,15.63
2018-05-29T22:18:33.943Z,13.13
2018-05-29T22:20:37.456Z,13.73
2018-05-29T22:22:40.939Z,11.13
2018-05-29T22:24:44.495Z,15.67
2018-05-29T22:26:47.987Z,13.87
2018-05-29T22:28:51.508Z,10.43
2018-05-29T22:30:55.044Z,10.90
2018-05-29T22:32:58.620Z,14.43
2018-05-29T22:35:02.148Z,15.07
2018-05-29T22:37:05.619Z,15.67
2018-05-29T22:39:09.173Z,12.10
2018-05-29T22:41:12.702Z,11.60
2018-05-29T22:43:16.221Z,11.07
2018-05-29T22:45:19.757Z,12.30
2018-05-29T22:47:23.295Z,12.70
2018-05-29T22:49:26.824Z,14.70
2018-05-29T22:51:30.330Z,14.23
2018-05-29T22:53:33.880Z,13.77
2018-05-29T22:55:37.376Z,14.83
2018-05-29T22:57:40.908Z,12.00
2018-05-29T22:59:44.425Z,14.63
2018-05-29T23:01:47.929Z,14.43
2018-05-29T23:03:51.430Z,13.23
2018-05-29T23:05:54.957Z,12.23
2018-05-29T23:07:58.472Z,13.07
2018-05-29T23:10:02.062Z,11.70
2018-05-29T23:12:04.875Z,13.40
2018-05-29T23:14:08.425Z,15.10
2018-05-29T23:16:11.933Z,11.63
2018-05-29T23:18:15.445Z,13.53
2018-05-29T23:20:18.937Z,12.53
2018-05-29T23:22:22.440Z,15.87
2018-05-29T23:24:25.963Z,17.20
2018-05-29T23:26:29.464Z,13.20
2018-05-29T23:28:33.010Z,14.10
2018-05-29T23:30:36.518Z,13.43
2018-05-29T23:32:40.048Z,11.37
2018-05-29T23:34:43.592Z,9.50
2018-05-29T23:36:47.104Z,12.03
2018-05-29T23:38:50.573Z,13.30
2018-05-29T23:40:54.116Z,15.00
2018-05-29T23:42:57.601Z,16.77
2018-05-29T23:45:01.127Z,16.23
2018-05-29T23:47:04.333Z,12.03
2018-05-29T23:49:07.507Z,12.57
2018-05-29T23:51:11.042Z,12.80
2018-05-29T23:53:14.533Z,13.80
2018-05-29T23:55:18.085Z,14.30
2018-05-29T23:57:21.619Z,13.37
2018-05-29T23:59:25.166Z,11.07
